sensor_id;sensor_type;location;lat;lon;timestamp;pressure;altitude;pressure_sealevel;temperature;humidity
10668;BME280;5382;42.136;24.796;2023-03-07T00:00:37;99294.47;;;7.12;100.00
10668;BME280;5382;42.136;24.796;2023-03-07T00:03:04;99296.41;;;7.10;100.00
10668;BME280;5382;42.136;24.796;2023-03-07T00:05:31;99301.53;;;6.99;100.00
10668;BME280;5382;42.136;24.796;2023-03-07T00:07:58;99289.09;;;6.88;100.00
10668;BME280;5382;42.136;24.796;2023-03-07T00:10:25;99289.00;;;6.90;100.00
10668;BME280;5382;42.136;24.796;2023-03-07T00:12:52;99293.09;;;6.94;100.00
10668;BME280;5382;42.136;24.796;2023-03-07T00:15:18;99296.91;;;7.03;100.00
10668;BME280;5382;42.136;24.796;2023-03-07T00:17:47;99285.03;;;6.97;100.00
10668;BME280;5382;42.136;24.796;2023-03-07T00:20:14;99262.44;;;6.67;100.00
10668;BME280;5382;42.136;24.796;2023-03-07T00:22:42;99285.09;;;6.83;100.00
10668;BME280;5382;42.136;24.796;2023-03-07T00:25:11;99293.50;;;6.88;100.00
10668;BME280;5382;42.136;24.796;2023-03-07T00:27:39;99295.19;;;6.89;100.00
10668;BME280;5382;42.136;24.796;2023-03-07T00:30:08;99291.84;;;6.87;100.00
10668;BME280;5382;42.136;24.796;2023-03-07T00:32:36;99293.75;;;6.97;100.00
10668;BME280;5382;42.136;24.796;2023-03-07T00:35:06;99280.09;;;7.05;100.00
10668;BME280;5382;42.136;24.796;2023-03-07T00:37:32;99281.97;;;7.03;100.00
10668;BME280;5382;42.136;24.796;2023-03-07T00:39:59;99296.69;;;6.93;100.00
10668;BME280;5382;42.136;24.796;2023-03-07T00:42:26;99288.50;;;6.97;100.00
10668;BME280;5382;42.136;24.796;2023-03-07T00:44:53;99289.94;;;7.02;100.00
10668;BME280;5382;42.136;24.796;2023-03-07T00:47:20;99288.50;;;6.97;100.00
10668;BME280;5382;42.136;24.796;2023-03-07T00:49:47;99277.13;;;6.97;100.00
10668;BME280;5382;42.136;24.796;2023-03-07T00:52:15;99283.44;;;7.07;100.00
10668;BME280;5382;42.136;24.796;2023-03-07T00:54:42;99273.00;;;6.93;100.00
10668;BME280;5382;42.136;24.796;2023-03-07T00:57:09;99258.56;;;6.86;100.00
10668;BME280;5382;42.136;24.796;2023-03-07T00:59:35;99257.75;;;6.85;100.00
10668;BME280;5382;42.136;24.796;2023-03-07T01:02:02;99258.78;;;6.83;100.00
10668;BME280;5382;42.136;24.796;2023-03-07T01:04:29;99245.84;;;6.80;100.00
10668;BME280;5382;42.136;24.796;2023-03-07T01:06:56;99224.28;;;6.74;100.00
10668;BME280;5382;42.136;24.796;2023-03-07T01:09:24;99254.16;;;6.86;100.00
10668;BME280;5382;42.136;24.796;2023-03-07T01:11:51;99247.44;;;6.82;100.00
10668;BME280;5382;42.136;24.796;2023-03-07T01:14:18;99244.69;;;6.84;100.00
10668;BME280;5382;42.136;24.796;2023-03-07T01:16:44;99243.09;;;6.81;100.00
10668;BME280;5382;42.136;24.796;2023-03-07T01:19:11;99240.69;;;6.78;100.00
10668;BME280;5382;42.136;24.796;2023-03-07T01:21:39;99241.94;;;6.72;100.00
10668;BME280;5382;42.136;24.796;2023-03-07T01:24:10;99251.59;;;6.59;100.00
10668;BME280;5382;42.136;24.796;2023-03-07T01:26:39;99249.91;;;6.71;100.00
10668;BME280;5382;42.136;24.796;2023-03-07T01:29:06;99240.66;;;6.65;100.00
10668;BME280;5382;42.136;24.796;2023-03-07T01:31:34;99239.19;;;6.61;100.00
10668;BME280;5382;42.136;24.796;2023-03-07T01:34:01;99238.97;;;6.64;100.00
10668;BME280;5382;42.136;24.796;2023-03-07T01:36:30;99234.31;;;6.55;100.00
10668;BME280;5382;42.136;24.796;2023-03-07T01:38:58;99238.81;;;6.53;100.00
10668;BME280;5382;42.136;24.796;2023-03-07T01:41:27;99229.50;;;6.62;100.00
10668;BME280;5382;42.136;24.796;2023-03-07T01:43:58;99238.16;;;6.37;100.00
10668;BME280;5382;42.136;24.796;2023-03-07T01:46:32;99255.66;;;6.23;100.00
10668;BME280;5382;42.136;24.796;2023-03-07T01:49:02;99249.28;;;6.27;100.00
10668;BME280;5382;42.136;24.796;2023-03-07T01:51:32;99244.38;;;6.36;100.00
10668;BME280;5382;42.136;24.796;2023-03-07T01:54:00;99256.34;;;6.40;100.00
10668;BME280;5382;42.136;24.796;2023-03-07T01:56:28;99246.72;;;6.53;100.00
10668;BME280;5382;42.136;24.796;2023-03-07T01:58:55;99254.31;;;6.58;100.00
10668;BME280;5382;42.136;24.796;2023-03-07T02:01:25;99263.03;;;6.58;100.00
10668;BME280;5382;42.136;24.796;2023-03-07T02:03:54;99252.66;;;6.69;100.00
10668;BME280;5382;42.136;24.796;2023-03-07T02:06:24;99229.28;;;6.52;100.00
10668;BME280;5382;42.136;24.796;2023-03-07T02:08:53;99248.84;;;6.61;100.00
10668;BME280;5382;42.136;24.796;2023-03-07T02:11:21;99252.09;;;6.51;100.00
10668;BME280;5382;42.136;24.796;2023-03-07T02:13:49;99245.84;;;6.40;100.00
10668;BME280;5382;42.136;24.796;2023-03-07T02:16:15;99232.38;;;6.31;100.00
10668;BME280;5382;42.136;24.796;2023-03-07T02:18:45;99242.31;;;6.26;100.00
10668;BME280;5382;42.136;24.796;2023-03-07T02:21:18;99247.31;;;6.17;100.00
10668;BME280;5382;42.136;24.796;2023-03-07T02:23:52;99241.16;;;6.18;100.00
10668;BME280;5382;42.136;24.796;2023-03-07T02:28:58;99243.44;;;6.09;100.00
10668;BME280;5382;42.136;24.796;2023-03-07T02:31:25;99195.69;;;5.88;100.00
10668;BME280;5382;42.136;24.796;2023-03-07T02:33:52;99258.28;;;6.23;100.00
10668;BME280;5382;42.136;24.796;2023-03-07T02:36:22;99256.41;;;6.25;100.00
10668;BME280;5382;42.136;24.796;2023-03-07T02:38:51;99250.56;;;6.07;100.00
10668;BME280;5382;42.136;24.796;2023-03-07T02:41:24;99252.69;;;6.15;100.00
10668;BME280;5382;42.136;24.796;2023-03-07T02:43:51;99247.69;;;6.25;100.00
10668;BME280;5382;42.136;24.796;2023-03-07T02:46:19;99249.72;;;6.07;100.00
10668;BME280;5382;42.136;24.796;2023-03-07T02:48:46;99237.53;;;5.92;100.00
10668;BME280;5382;42.136;24.796;2023-03-07T02:51:13;99241.47;;;5.99;100.00
10668;BME280;5382;42.136;24.796;2023-03-07T02:53:40;99229.91;;;6.01;100.00
10668;BME280;5382;42.136;24.796;2023-03-07T02:56:07;99235.16;;;6.01;100.00
10668;BME280;5382;42.136;24.796;2023-03-07T02:58:34;99236.75;;;6.04;100.00
10668;BME280;5382;42.136;24.796;2023-03-07T03:01:00;99242.13;;;6.02;100.00
10668;BME280;5382;42.136;24.796;2023-03-07T03:03:29;99250.28;;;5.98;100.00
10668;BME280;5382;42.136;24.796;2023-03-07T03:05:56;99238.09;;;5.82;100.00
10668;BME280;5382;42.136;24.796;2023-03-07T03:08:23;99245.13;;;5.82;100.00
10668;BME280;5382;42.136;24.796;2023-03-07T03:10:51;99248.50;;;5.84;100.00
10668;BME280;5382;42.136;24.796;2023-03-07T03:13:19;99250.22;;;5.71;100.00
10668;BME280;5382;42.136;24.796;2023-03-07T03:15:47;99254.44;;;5.73;100.00
10668;BME280;5382;42.136;24.796;2023-03-07T03:18:14;99247.00;;;5.80;100.00
10668;BME280;5382;42.136;24.796;2023-03-07T03:20:43;99238.50;;;5.76;100.00
10668;BME280;5382;42.136;24.796;2023-03-07T03:23:09;99242.38;;;5.83;100.00
10668;BME280;5382;42.136;24.796;2023-03-07T03:25:36;99247.28;;;5.89;100.00
10668;BME280;5382;42.136;24.796;2023-03-07T03:28:03;99246.72;;;5.99;100.00
10668;BME280;5382;42.136;24.796;2023-03-07T03:30:30;99243.53;;;5.94;100.00
10668;BME280;5382;42.136;24.796;2023-03-07T03:33:00;99247.91;;;5.93;100.00
10668;BME280;5382;42.136;24.796;2023-03-07T03:35:27;99239.38;;;6.04;100.00
10668;BME280;5382;42.136;24.796;2023-03-07T03:37:55;99244.75;;;6.02;100.00
10668;BME280;5382;42.136;24.796;2023-03-07T03:40:22;99254.78;;;6.10;100.00
10668;BME280;5382;42.136;24.796;2023-03-07T03:42:48;99247.22;;;6.18;100.00
10668;BME280;5382;42.136;24.796;2023-03-07T03:45:16;99245.34;;;6.20;100.00
10668;BME280;5382;42.136;24.796;2023-03-07T03:47:43;99260.38;;;6.18;100.00
10668;BME280;5382;42.136;24.796;2023-03-07T03:50:12;99258.22;;;6.10;100.00
10668;BME280;5382;42.136;24.796;2023-03-07T03:52:39;99248.97;;;6.05;100.00
10668;BME280;5382;42.136;24.796;2023-03-07T03:55:10;99179.22;;;5.45;100.00
10668;BME280;5382;42.136;24.796;2023-03-07T03:57:37;99242.31;;;5.85;100.00
10668;BME280;5382;42.136;24.796;2023-03-07T04:00:05;99241.13;;;5.76;100.00
10668;BME280;5382;42.136;24.796;2023-03-07T04:02:33;99243.75;;;5.76;100.00
10668;BME280;5382;42.136;24.796;2023-03-07T04:05:00;99253.22;;;5.50;100.00
10668;BME280;5382;42.136;24.796;2023-03-07T04:07:27;99253.94;;;5.52;100.00
10668;BME280;5382;42.136;24.796;2023-03-07T04:09:54;99254.81;;;5.53;100.00
10668;BME280;5382;42.136;24.796;2023-03-07T04:12:22;99265.69;;;5.61;100.00
10668;BME280;5382;42.136;24.796;2023-03-07T04:14:49;99271.00;;;5.59;100.00
10668;BME280;5382;42.136;24.796;2023-03-07T04:17:16;99271.22;;;5.71;100.00
10668;BME280;5382;42.136;24.796;2023-03-07T04:19:42;99275.53;;;5.72;100.00
10668;BME280;5382;42.136;24.796;2023-03-07T04:22:09;99268.13;;;5.64;100.00
10668;BME280;5382;42.136;24.796;2023-03-07T04:24:36;99272.97;;;5.70;100.00
10668;BME280;5382;42.136;24.796;2023-03-07T04:27:03;99271.22;;;5.56;100.00
10668;BME280;5382;42.136;24.796;2023-03-07T04:29:31;99261.75;;;5.54;100.00
10668;BME280;5382;42.136;24.796;2023-03-07T04:31:58;99270.63;;;5.37;100.00
10668;BME280;5382;42.136;24.796;2023-03-07T04:34:25;99261.63;;;5.12;100.00
10668;BME280;5382;42.136;24.796;2023-03-07T04:36:51;99273.69;;;5.00;100.00
10668;BME280;5382;42.136;24.796;2023-03-07T04:39:18;99260.88;;;5.10;100.00
10668;BME280;5382;42.136;24.796;2023-03-07T04:41:45;99247.69;;;5.12;100.00
10668;BME280;5382;42.136;24.796;2023-03-07T04:44:12;99272.41;;;5.22;100.00
10668;BME280;5382;42.136;24.796;2023-03-07T04:46:41;99266.25;;;5.37;100.00
10668;BME280;5382;42.136;24.796;2023-03-07T04:49:07;99273.28;;;5.51;100.00
10668;BME280;5382;42.136;24.796;2023-03-07T04:51:34;99268.28;;;5.46;100.00
10668;BME280;5382;42.136;24.796;2023-03-07T04:54:01;99276.53;;;5.55;100.00
10668;BME280;5382;42.136;24.796;2023-03-07T04:56:28;99275.16;;;5.63;100.00
10668;BME280;5382;42.136;24.796;2023-03-07T04:58:54;99282.75;;;5.68;100.00
10668;BME280;5382;42.136;24.796;2023-03-07T05:01:21;99284.63;;;5.66;100.00
10668;BME280;5382;42.136;24.796;2023-03-07T05:03:49;99281.81;;;5.69;100.00
10668;BME280;5382;42.136;24.796;2023-03-07T05:06:16;99291.91;;;5.75;100.00
10668;BME280;5382;42.136;24.796;2023-03-07T05:08:43;99290.88;;;5.78;100.00
10668;BME280;5382;42.136;24.796;2023-03-07T05:11:10;99297.91;;;5.77;100.00
10668;BME280;5382;42.136;24.796;2023-03-07T05:13:37;99296.25;;;5.76;100.00
10668;BME280;5382;42.136;24.796;2023-03-07T05:16:04;99291.91;;;5.75;100.00
10668;BME280;5382;42.136;24.796;2023-03-07T05:18:31;99285.25;;;5.84;100.00
10668;BME280;5382;42.136;24.796;2023-03-07T05:20:59;99271.78;;;5.76;100.00
10668;BME280;5382;42.136;24.796;2023-03-07T05:23:26;99289.56;;;5.85;100.00
10668;BME280;5382;42.136;24.796;2023-03-07T05:25:53;99281.69;;;5.85;100.00
10668;BME280;5382;42.136;24.796;2023-03-07T05:28:20;99283.75;;;5.80;100.00
10668;BME280;5382;42.136;24.796;2023-03-07T05:30:46;99283.34;;;5.86;100.00
10668;BME280;5382;42.136;24.796;2023-03-07T05:33:13;99281.31;;;5.62;100.00
10668;BME280;5382;42.136;24.796;2023-03-07T05:35:40;99283.69;;;5.53;100.00
10668;BME280;5382;42.136;24.796;2023-03-07T05:38:09;99293.03;;;5.57;100.00
10668;BME280;5382;42.136;24.796;2023-03-07T05:40:36;99296.50;;;5.72;100.00
10668;BME280;5382;42.136;24.796;2023-03-07T05:43:03;99298.00;;;5.90;100.00
10668;BME280;5382;42.136;24.796;2023-03-07T05:45:30;99307.31;;;5.96;100.00
10668;BME280;5382;42.136;24.796;2023-03-07T05:47:57;99292.66;;;6.06;100.00
10668;BME280;5382;42.136;24.796;2023-03-07T05:50:24;99292.84;;;6.17;100.00
10668;BME280;5382;42.136;24.796;2023-03-07T05:52:51;99301.28;;;6.22;100.00
10668;BME280;5382;42.136;24.796;2023-03-07T05:55:19;99309.00;;;6.38;100.00
10668;BME280;5382;42.136;24.796;2023-03-07T05:57:46;99305.91;;;6.46;100.00
10668;BME280;5382;42.136;24.796;2023-03-07T06:00:14;99315.44;;;6.47;100.00
10668;BME280;5382;42.136;24.796;2023-03-07T06:02:41;99307.16;;;6.53;100.00
10668;BME280;5382;42.136;24.796;2023-03-07T06:05:08;99299.53;;;6.63;100.00
10668;BME280;5382;42.136;24.796;2023-03-07T06:07:35;99307.91;;;6.55;100.00
10668;BME280;5382;42.136;24.796;2023-03-07T06:10:02;99305.28;;;6.55;100.00
10668;BME280;5382;42.136;24.796;2023-03-07T06:12:30;99313.88;;;6.71;100.00
10668;BME280;5382;42.136;24.796;2023-03-07T06:14:57;99314.97;;;6.82;100.00
10668;BME280;5382;42.136;24.796;2023-03-07T06:17:24;99298.09;;;6.71;100.00
10668;BME280;5382;42.136;24.796;2023-03-07T06:19:50;99313.66;;;6.74;100.00
10668;BME280;5382;42.136;24.796;2023-03-07T06:22:17;99312.50;;;6.78;100.00
10668;BME280;5382;42.136;24.796;2023-03-07T06:24:44;99325.50;;;6.94;100.00
10668;BME280;5382;42.136;24.796;2023-03-07T06:27:11;99324.22;;;6.87;100.00
10668;BME280;5382;42.136;24.796;2023-03-07T06:29:39;99316.53;;;6.84;100.00
10668;BME280;5382;42.136;24.796;2023-03-07T06:32:06;99320.88;;;6.98;100.00
10668;BME280;5382;42.136;24.796;2023-03-07T06:34:33;99308.63;;;6.71;100.00
10668;BME280;5382;42.136;24.796;2023-03-07T06:37:00;99322.44;;;6.88;100.00
10668;BME280;5382;42.136;24.796;2023-03-07T06:39:26;99312.25;;;6.96;100.00
10668;BME280;5382;42.136;24.796;2023-03-07T06:41:53;99315.13;;;7.18;100.00
10668;BME280;5382;42.136;24.796;2023-03-07T06:44:20;99325.88;;;7.15;100.00
10668;BME280;5382;42.136;24.796;2023-03-07T06:46:48;99327.22;;;7.08;100.00
10668;BME280;5382;42.136;24.796;2023-03-07T06:49:15;99329.22;;;7.17;100.00
10668;BME280;5382;42.136;24.796;2023-03-07T06:51:42;99331.00;;;7.17;100.00
10668;BME280;5382;42.136;24.796;2023-03-07T06:54:08;99315.84;;;6.95;100.00
10668;BME280;5382;42.136;24.796;2023-03-07T06:56:35;99330.78;;;7.07;100.00
10668;BME280;5382;42.136;24.796;2023-03-07T06:59:02;99337.13;;;7.17;100.00
10668;BME280;5382;42.136;24.796;2023-03-07T07:01:29;99329.72;;;7.10;100.00
10668;BME280;5382;42.136;24.796;2023-03-07T07:03:57;99331.47;;;7.36;100.00
10668;BME280;5382;42.136;24.796;2023-03-07T07:06:24;99328.94;;;7.48;100.00
10668;BME280;5382;42.136;24.796;2023-03-07T07:08:53;99330.75;;;7.60;100.00
10668;BME280;5382;42.136;24.796;2023-03-07T07:11:20;99338.34;;;7.77;100.00
10668;BME280;5382;42.136;24.796;2023-03-07T07:13:47;99331.25;;;7.78;100.00
10668;BME280;5382;42.136;24.796;2023-03-07T07:16:15;99345.88;;;7.95;100.00
10668;BME280;5382;42.136;24.796;2023-03-07T07:18:43;99336.72;;;8.00;100.00
10668;BME280;5382;42.136;24.796;2023-03-07T07:21:11;99339.94;;;8.17;100.00
10668;BME280;5382;42.136;24.796;2023-03-07T07:23:38;99338.56;;;8.24;100.00
10668;BME280;5382;42.136;24.796;2023-03-07T07:26:05;99332.44;;;8.23;100.00
10668;BME280;5382;42.136;24.796;2023-03-07T07:28:32;99333.47;;;8.34;100.00
10668;BME280;5382;42.136;24.796;2023-03-07T07:30:58;99337.66;;;8.49;100.00
10668;BME280;5382;42.136;24.796;2023-03-07T07:33:25;99343.53;;;8.65;100.00
10668;BME280;5382;42.136;24.796;2023-03-07T07:35:52;99327.75;;;8.77;100.00
10668;BME280;5382;42.136;24.796;2023-03-07T07:38:20;99328.44;;;8.67;100.00
10668;BME280;5382;42.136;24.796;2023-03-07T07:40:47;99331.91;;;8.68;100.00
10668;BME280;5382;42.136;24.796;2023-03-07T07:43:15;99335.84;;;8.86;100.00
10668;BME280;5382;42.136;24.796;2023-03-07T07:45:42;99329.88;;;8.95;100.00
10668;BME280;5382;42.136;24.796;2023-03-07T07:48:09;99327.22;;;8.95;100.00
10668;BME280;5382;42.136;24.796;2023-03-07T07:50:36;99332.56;;;9.07;100.00
10668;BME280;5382;42.136;24.796;2023-03-07T07:53:03;99329.94;;;9.07;100.00
10668;BME280;5382;42.136;24.796;2023-03-07T07:55:31;99331.75;;;9.17;100.00
10668;BME280;5382;42.136;24.796;2023-03-07T07:57:58;99329.88;;;9.31;100.00
10668;BME280;5382;42.136;24.796;2023-03-07T08:00:25;99329.03;;;9.42;100.00
10668;BME280;5382;42.136;24.796;2023-03-07T08:02:52;99321.25;;;9.40;100.00
10668;BME280;5382;42.136;24.796;2023-03-07T08:05:20;99334.97;;;9.56;100.00
10668;BME280;5382;42.136;24.796;2023-03-07T08:07:47;99320.91;;;9.67;100.00
10668;BME280;5382;42.136;24.796;2023-03-07T08:10:15;99316.00;;;9.85;100.00
10668;BME280;5382;42.136;24.796;2023-03-07T08:12:47;99318.16;;;9.91;100.00
10668;BME280;5382;42.136;24.796;2023-03-07T08:15:15;99316.88;;;9.97;100.00
10668;BME280;5382;42.136;24.796;2023-03-07T08:17:43;99311.91;;;10.15;100.00
10668;BME280;5382;42.136;24.796;2023-03-07T08:20:11;99315.25;;;10.17;100.00
10668;BME280;5382;42.136;24.796;2023-03-07T08:22:38;99312.00;;;10.24;100.00
10668;BME280;5382;42.136;24.796;2023-03-07T08:25:06;99310.59;;;10.43;100.00
10668;BME280;5382;42.136;24.796;2023-03-07T08:27:33;99316.19;;;10.50;100.00
10668;BME280;5382;42.136;24.796;2023-03-07T08:30:02;99318.28;;;10.46;100.00
10668;BME280;5382;42.136;24.796;2023-03-07T08:32:29;99316.66;;;10.55;100.00
10668;BME280;5382;42.136;24.796;2023-03-07T08:34:56;99315.44;;;10.70;100.00
10668;BME280;5382;42.136;24.796;2023-03-07T08:37:23;99320.56;;;10.83;100.00
10668;BME280;5382;42.136;24.796;2023-03-07T08:39:49;99319.56;;;10.95;100.00
10668;BME280;5382;42.136;24.796;2023-03-07T08:42:16;99311.28;;;11.09;100.00
10668;BME280;5382;42.136;24.796;2023-03-07T08:44:43;99319.94;;;11.11;100.00
10668;BME280;5382;42.136;24.796;2023-03-07T08:47:11;99312.28;;;11.29;100.00
10668;BME280;5382;42.136;24.796;2023-03-07T08:49:38;99312.06;;;11.42;100.00
10668;BME280;5382;42.136;24.796;2023-03-07T08:52:05;99310.22;;;11.54;100.00
10668;BME280;5382;42.136;24.796;2023-03-07T08:54:32;99290.19;;;11.71;100.00
10668;BME280;5382;42.136;24.796;2023-03-07T08:56:59;99311.88;;;11.86;100.00
10668;BME280;5382;42.136;24.796;2023-03-07T08:59:26;99305.84;;;12.05;100.00
10668;BME280;5382;42.136;24.796;2023-03-07T09:01:54;99317.22;;;12.26;100.00
10668;BME280;5382;42.136;24.796;2023-03-07T09:04:22;99308.59;;;12.43;100.00
10668;BME280;5382;42.136;24.796;2023-03-07T09:06:49;99308.91;;;12.70;100.00
10668;BME280;5382;42.136;24.796;2023-03-07T09:09:16;99316.06;;;12.88;100.00
10668;BME280;5382;42.136;24.796;2023-03-07T09:11:43;99314.50;;;12.96;100.00
10668;BME280;5382;42.136;24.796;2023-03-07T09:14:10;99317.16;;;12.96;100.00
10668;BME280;5382;42.136;24.796;2023-03-07T09:16:36;99308.78;;;13.10;100.00
10668;BME280;5382;42.136;24.796;2023-03-07T09:19:03;99314.50;;;13.15;100.00
10668;BME280;5382;42.136;24.796;2023-03-07T09:21:31;99302.06;;;13.16;100.00
10668;BME280;5382;42.136;24.796;2023-03-07T09:23:58;99308.63;;;13.21;100.00
10668;BME280;5382;42.136;24.796;2023-03-07T09:26:25;99282.34;;;13.18;100.00
10668;BME280;5382;42.136;24.796;2023-03-07T09:28:52;99296.88;;;13.53;100.00
10668;BME280;5382;42.136;24.796;2023-03-07T09:31:18;99300.47;;;13.62;100.00
10668;BME280;5382;42.136;24.796;2023-03-07T09:33:45;99300.97;;;13.85;100.00
10668;BME280;5382;42.136;24.796;2023-03-07T09:36:13;99291.75;;;14.07;100.00
10668;BME280;5382;42.136;24.796;2023-03-07T09:38:41;99287.06;;;13.91;100.00
10668;BME280;5382;42.136;24.796;2023-03-07T09:44:04;99282.44;;;13.93;100.00
10668;BME280;5382;42.136;24.796;2023-03-07T09:46:42;99286.28;;;14.08;100.00
10668;BME280;5382;42.136;24.796;2023-03-07T09:49:17;99284.19;;;14.30;100.00
10668;BME280;5382;42.136;24.796;2023-03-07T09:51:48;99282.53;;;14.29;100.00
10668;BME280;5382;42.136;24.796;2023-03-07T09:54:19;99279.28;;;14.35;100.00
10668;BME280;5382;42.136;24.796;2023-03-07T09:56:50;99271.09;;;14.46;100.00
10668;BME280;5382;42.136;24.796;2023-03-07T09:59:22;99272.09;;;14.63;100.00
10668;BME280;5382;42.136;24.796;2023-03-07T10:01:58;99267.53;;;14.73;100.00
10668;BME280;5382;42.136;24.796;2023-03-07T10:04:29;99267.91;;;14.96;100.00
10668;BME280;5382;42.136;24.796;2023-03-07T10:06:58;99255.75;;;15.20;100.00
10668;BME280;5382;42.136;24.796;2023-03-07T10:09:29;99253.69;;;15.05;100.00
10668;BME280;5382;42.136;24.796;2023-03-07T10:15:06;99257.50;;;15.29;100.00
10668;BME280;5382;42.136;24.796;2023-03-07T10:17:50;99250.03;;;15.33;100.00
10668;BME280;5382;42.136;24.796;2023-03-07T10:20:23;99236.13;;;15.21;100.00
10668;BME280;5382;42.136;24.796;2023-03-07T10:22:58;99245.22;;;15.36;100.00
10668;BME280;5382;42.136;24.796;2023-03-07T10:25:33;99242.25;;;15.39;100.00
10668;BME280;5382;42.136;24.796;2023-03-07T10:28:15;99191.50;;;15.23;100.00
10668;BME280;5382;42.136;24.796;2023-03-07T10:30:45;99218.97;;;15.49;100.00
10668;BME280;5382;42.136;24.796;2023-03-07T10:33:16;99220.69;;;15.33;100.00
10668;BME280;5382;42.136;24.796;2023-03-07T10:35:47;99215.66;;;15.56;100.00
10668;BME280;5382;42.136;24.796;2023-03-07T10:38:18;99219.50;;;15.87;100.00
10668;BME280;5382;42.136;24.796;2023-03-07T10:40:54;99209.84;;;15.95;100.00
10668;BME280;5382;42.136;24.796;2023-03-07T10:43:24;99218.53;;;15.97;100.00
10668;BME280;5382;42.136;24.796;2023-03-07T10:45:57;99203.25;;;16.15;100.00
10668;BME280;5382;42.136;24.796;2023-03-07T10:48:26;99194.56;;;16.13;100.00
10668;BME280;5382;42.136;24.796;2023-03-07T10:50:57;99192.59;;;16.31;100.00
10668;BME280;5382;42.136;24.796;2023-03-07T10:53:31;99185.28;;;16.74;100.00
10668;BME280;5382;42.136;24.796;2023-03-07T10:56:12;99169.22;;;17.23;100.00
10668;BME280;5382;42.136;24.796;2023-03-07T10:58:58;99159.09;;;17.58;98.52
10668;BME280;5382;42.136;24.796;2023-03-07T11:01:26;99144.66;;;17.67;100.00
10668;BME280;5382;42.136;24.796;2023-03-07T11:03:56;99140.50;;;18.65;100.00
10668;BME280;5382;42.136;24.796;2023-03-07T11:06:31;99133.97;;;19.06;93.51
10668;BME280;5382;42.136;24.796;2023-03-07T11:09:07;99125.72;;;19.52;92.80
10668;BME280;5382;42.136;24.796;2023-03-07T11:11:36;99108.06;;;19.72;84.31
10668;BME280;5382;42.136;24.796;2023-03-07T11:14:05;99112.28;;;20.03;75.65
10668;BME280;5382;42.136;24.796;2023-03-07T11:16:39;99103.47;;;20.31;73.27
10668;BME280;5382;42.136;24.796;2023-03-07T11:19:30;99096.94;;;20.89;71.08
10668;BME280;5382;42.136;24.796;2023-03-07T11:22:00;99091.25;;;21.41;73.51
10668;BME280;5382;42.136;24.796;2023-03-07T11:24:29;99085.66;;;22.04;70.25
10668;BME280;5382;42.136;24.796;2023-03-07T11:26:58;99080.75;;;22.20;65.67
10668;BME280;5382;42.136;24.796;2023-03-07T11:29:25;99076.81;;;22.43;65.53
10668;BME280;5382;42.136;24.796;2023-03-07T11:32:01;99061.66;;;22.35;64.74
10668;BME280;5382;42.136;24.796;2023-03-07T11:34:35;99058.78;;;22.37;66.20
10668;BME280;5382;42.136;24.796;2023-03-07T11:37:16;99057.88;;;22.96;63.82
10668;BME280;5382;42.136;24.796;2023-03-07T11:39:52;99050.28;;;23.38;61.41
10668;BME280;5382;42.136;24.796;2023-03-07T11:42:28;99040.13;;;23.85;58.54
10668;BME280;5382;42.136;24.796;2023-03-07T11:44:59;99043.72;;;23.66;57.24
10668;BME280;5382;42.136;24.796;2023-03-07T11:47:37;99037.50;;;23.14;59.62
10668;BME280;5382;42.136;24.796;2023-03-07T11:50:22;99028.50;;;22.61;58.10
10668;BME280;5382;42.136;24.796;2023-03-07T11:53:18;99027.28;;;23.29;59.85
10668;BME280;5382;42.136;24.796;2023-03-07T11:56:00;99023.16;;;23.20;57.76
10668;BME280;5382;42.136;24.796;2023-03-07T11:58:55;99006.66;;;24.11;55.71
10668;BME280;5382;42.136;24.796;2023-03-07T12:01:29;99013.06;;;24.86;54.62
10668;BME280;5382;42.136;24.796;2023-03-07T12:04:39;99009.59;;;24.35;52.34
10668;BME280;5382;42.136;24.796;2023-03-07T12:07:21;98998.47;;;24.43;52.73
10668;BME280;5382;42.136;24.796;2023-03-07T12:09:57;99004.19;;;23.71;54.38
10668;BME280;5382;42.136;24.796;2023-03-07T12:12:41;98998.00;;;24.28;53.11
10668;BME280;5382;42.136;24.796;2023-03-07T12:15:26;98991.50;;;25.16;51.58
10668;BME280;5382;42.136;24.796;2023-03-07T12:18:03;98991.50;;;24.97;54.04
10668;BME280;5382;42.136;24.796;2023-03-07T12:20:40;98984.72;;;24.70;53.42
10668;BME280;5382;42.136;24.796;2023-03-07T12:23:15;98978.16;;;24.96;53.12
10668;BME280;5382;42.136;24.796;2023-03-07T12:25:45;98980.03;;;25.51;48.75
10668;BME280;5382;42.136;24.796;2023-03-07T12:28:20;98969.72;;;26.72;44.07
10668;BME280;5382;42.136;24.796;2023-03-07T12:30:58;98966.16;;;26.13;45.13
10668;BME280;5382;42.136;24.796;2023-03-07T12:33:41;98973.28;;;23.67;51.02
10668;BME280;5382;42.136;24.796;2023-03-07T12:36:17;98976.72;;;23.49;50.82
10668;BME280;5382;42.136;24.796;2023-03-07T12:38:49;98944.44;;;23.23;51.19
10668;BME280;5382;42.136;24.796;2023-03-07T12:41:32;98964.13;;;23.37;51.53
10668;BME280;5382;42.136;24.796;2023-03-07T12:44:04;98964.81;;;22.54;53.90
10668;BME280;5382;42.136;24.796;2023-03-07T12:46:36;98964.22;;;22.12;54.15
10668;BME280;5382;42.136;24.796;2023-03-07T12:49:13;98956.53;;;22.35;53.63
10668;BME280;5382;42.136;24.796;2023-03-07T12:51:44;98964.38;;;23.28;53.37
10668;BME280;5382;42.136;24.796;2023-03-07T12:54:18;98957.44;;;24.28;51.53
10668;BME280;5382;42.136;24.796;2023-03-07T12:56:51;98955.97;;;24.32;50.38
10668;BME280;5382;42.136;24.796;2023-03-07T12:59:20;98957.13;;;25.16;48.58
10668;BME280;5382;42.136;24.796;2023-03-07T13:01:53;98947.91;;;24.44;46.17
10668;BME280;5382;42.136;24.796;2023-03-07T13:04:27;98947.75;;;24.20;48.87
10668;BME280;5382;42.136;24.796;2023-03-07T13:07:04;98944.69;;;24.35;50.10
10668;BME280;5382;42.136;24.796;2023-03-07T13:09:32;98950.22;;;25.20;48.10
10668;BME280;5382;42.136;24.796;2023-03-07T13:15:04;98945.69;;;23.59;47.01
10668;BME280;5382;42.136;24.796;2023-03-07T13:17:58;98943.19;;;23.25;49.48
10668;BME280;5382;42.136;24.796;2023-03-07T13:20:41;98944.66;;;22.63;48.35